Time;durP1;ratioP1;P1;durP2;ratioP2;P2;SDS_P1;SDS_P2;PMS_P1;PMS_P2;Temp;Humidity;BMP_temperature;BMP_pressure;BME280_temperature;BME280_humidity;BME280_pressure;Samples;Min_cycle;Max_cycle;Signal;HPM_P1;HPM_P2
2022/06/22 00:00:19;;;;;;;14.90;13.35;;;11.20;86.60;;;;;;5093565;28;20065;-43
2022/06/22 00:02:50;;;;;;;14.80;13.30;;;11.10;86.40;;;;;;5112067;27;20027;-42
2022/06/22 00:05:37;;;;;;;16.83;12.25;;;11.10;86.40;;;;;;5121542;27;20051;-45
2022/06/22 00:08:06;;;;;;;14.18;11.82;;;11.00;86.10;;;;;;5109915;28;20031;-42
2022/06/22 00:10:37;;;;;;;11.45;10.27;;;11.00;86.40;;;;;;5111211;27;20729;-42
2022/06/22 00:13:12;;;;;;;16.00;11.63;;;10.90;86.50;;;;;;5111206;28;20031;-44
2022/06/22 00:15:46;;;;;;;11.02;9.80;;;10.90;86.50;;;;;;5110973;27;20464;-41
2022/06/22 00:18:42;;;;;;;12.00;10.18;;;10.90;86.30;;;;;;5110994;28;20370;-43
2022/06/22 00:21:14;;;;;;;11.27;8.45;;;10.80;86.50;;;;;;5110335;27;20028;-43
2022/06/22 00:23:42;;;;;;;10.15;9.05;;;10.80;86.60;;;;;;5111029;28;20096;-42
2022/06/22 00:26:23;;;;;;;11.27;8.82;;;10.70;86.70;;;;;;5110105;28;20042;-42
2022/06/22 00:28:55;;;;;;;8.50;7.57;;;10.70;86.70;;;;;;5118201;27;20510;-43
2022/06/22 00:31:39;;;;;;;9.60;8.55;;;10.70;86.90;;;;;;5131275;27;20023;-43
2022/06/22 00:34:11;;;;;;;9.23;8.18;;;10.70;86.80;;;;;;5100324;27;20031;-42
2022/06/22 00:36:55;;;;;;;8.45;7.35;;;10.70;86.60;;;;;;5131275;27;20023;-42
2022/06/22 00:39:21;;;;;;;10.55;8.25;;;10.60;86.80;;;;;;5120989;27;20453;-41
2022/06/22 00:41:49;;;;;;;8.18;7.28;;;10.60;86.90;;;;;;5130693;27;20027;-43
2022/06/22 00:44:20;;;;;;;9.67;8.60;;;10.70;86.90;;;;;;5125917;27;20070;-41
2022/06/22 00:46:58;;;;;;;8.88;7.45;;;10.60;86.90;;;;;;5110261;27;20046;-41
2022/06/22 00:49:24;;;;;;;9.40;8.15;;;10.70;87.00;;;;;;5092721;28;20035;-41
2022/06/22 00:51:51;;;;;;;8.95;8.05;;;10.60;86.80;;;;;;5129260;27;20039;-42
2022/06/22 00:54:24;;;;;;;8.57;7.22;;;10.60;86.90;;;;;;5112700;27;20051;-43
2022/06/22 00:56:57;;;;;;;8.57;7.68;;;10.60;86.90;;;;;;5129114;27;20079;-41
2022/06/22 00:59:23;;;;;;;8.75;7.47;;;10.50;86.90;;;;;;5104453;27;20432;-42
2022/06/22 01:02:09;;;;;;;9.50;7.53;;;10.50;86.50;;;;;;5129620;27;20051;-42
2022/06/22 01:04:46;;;;;;;9.10;6.68;;;10.40;86.80;;;;;;5098384;28;20106;-42
2022/06/22 01:07:37;;;;;;;7.95;7.15;;;10.40;86.90;;;;;;5092339;28;20031;-43
2022/06/22 01:10:09;;;;;;;7.93;6.78;;;10.40;87.00;;;;;;5120846;27;20031;-45
2022/06/22 01:12:53;;;;;;;9.40;8.20;;;10.40;87.10;;;;;;5110053;28;20366;-43
2022/06/22 01:15:45;;;;;;;8.63;6.82;;;10.40;87.10;;;;;;5120760;27;20482;-42
2022/06/22 01:18:36;;;;;;;8.32;6.65;;;10.50;87.10;;;;;;5110306;27;20040;-42
2022/06/22 01:21:14;;;;;;;8.57;7.70;;;10.40;86.90;;;;;;5095741;28;20055;-42
2022/06/22 01:24:12;;;;;;;15.23;9.40;;;10.40;86.60;;;;;;5094867;28;20051;-42
2022/06/22 01:27:16;;;;;;;8.65;7.50;;;10.40;87.00;;;;;;5123569;27;20107;-41
2022/06/22 01:29:47;;;;;;;8.52;7.40;;;10.40;87.20;;;;;;5109674;27;20070;-42
2022/06/22 01:32:19;;;;;;;8.77;7.80;;;10.40;87.30;;;;;;5109678;28;20360;-41
2022/06/22 01:34:51;;;;;;;9.88;7.68;;;10.40;87.30;;;;;;5122490;27;20031;-42
2022/06/22 01:37:26;;;;;;;7.53;6.80;;;10.40;87.20;;;;;;5130207;27;20770;-41
2022/06/22 01:40:14;;;;;;;8.85;7.85;;;10.40;87.10;;;;;;5097101;28;20035;-43
2022/06/22 01:42:53;;;;;;;8.82;7.10;;;10.30;86.80;;;;;;5091493;28;20048;-42
2022/06/22 01:45:44;;;;;;;9.45;7.80;;;10.30;86.80;;;;;;5108991;28;20355;-41
2022/06/22 01:48:13;;;;;;;10.02;7.78;;;10.30;86.90;;;;;;5109685;28;20034;-41
2022/06/22 01:50:46;;;;;;;10.17;7.90;;;10.20;86.70;;;;;;5109538;28;20032;-43
2022/06/22 01:53:29;;;;;;;8.57;6.85;;;10.20;86.80;;;;;;5109206;28;20265;-42
2022/06/22 01:56:02;;;;;;;8.82;7.07;;;10.20;86.70;;;;;;5109396;28;20040;-43
2022/06/22 01:58:31;;;;;;;9.48;8.45;;;10.20;86.90;;;;;;5109170;28;20452;-45
2022/06/22 02:01:12;;;;;;;8.68;7.63;;;10.10;86.80;;;;;;5117578;28;20015;-42
2022/06/22 02:03:55;;;;;;;8.82;7.53;;;10.10;86.90;;;;;;5110780;28;20325;-41
2022/06/22 02:09:24;;;;;;;11.70;8.35;;;10.10;87.10;;;;;;5109033;28;20027;-43
2022/06/22 02:12:37;;;;;;;9.02;7.78;;;10.20;87.00;;;;;;5108698;28;20042;-41
2022/06/22 02:14:52;;;;;;;11.13;7.78;;;10.10;87.00;;;;;;5101224;28;20059;-41
2022/06/22 02:17:22;;;;;;;9.57;7.35;;;10.00;87.00;;;;;;5110335;28;20310;-42
2022/06/22 02:20:16;;;;;;;9.43;7.25;;;10.00;87.10;;;;;;5120339;28;20019;-42
2022/06/22 02:22:47;;;;;;;9.60;7.18;;;10.00;87.30;;;;;;5111408;28;20061;-42
2022/06/22 02:25:17;;;;;;;8.70;7.72;;;9.90;87.30;;;;;;5113852;28;20081;-41
2022/06/22 02:27:43;;;;;;;8.63;7.18;;;10.00;87.40;;;;;;5109168;28;20126;-41
2022/06/22 02:30:09;;;;;;;9.18;7.60;;;10.00;87.50;;;;;;5122895;27;20119;-42
2022/06/22 02:32:41;;;;;;;9.48;8.02;;;10.00;87.50;;;;;;5133690;27;20433;-41
2022/06/22 02:35:09;;;;;;;13.80;8.35;;;10.00;87.60;;;;;;5111570;27;20031;-42
2022/06/22 02:37:40;;;;;;;11.48;7.85;;;10.00;87.70;;;;;;5133635;27;20116;-41
2022/06/22 02:40:11;;;;;;;8.00;6.82;;;10.00;87.50;;;;;;5121058;27;20051;-44
2022/06/22 02:45:23;;;;;;;8.00;6.65;;;9.90;87.40;;;;;;5126277;27;20035;-41
2022/06/22 02:48:00;;;;;;;7.88;6.53;;;9.80;87.10;;;;;;5115172;27;20035;-43
2022/06/22 02:50:31;;;;;;;7.93;6.65;;;9.70;87.30;;;;;;5114720;27;20027;-42
2022/06/22 02:53:01;;;;;;;7.60;6.50;;;9.70;87.50;;;;;;5112794;28;20036;-41
2022/06/22 02:55:29;;;;;;;;;;;9.70;87.50;;;;;;5112604;27;20464;-43
2022/06/22 02:57:54;;;;;;;7.57;5.50;;;9.70;87.50;;;;;;5112236;28;19981;-41
2022/06/22 03:00:38;;;;;;;7.03;6.13;;;9.60;87.60;;;;;;5126964;27;20032;-42
2022/06/22 03:03:16;;;;;;;7.75;6.45;;;9.70;87.60;;;;;;5132675;27;20446;-42
2022/06/22 03:05:44;;;;;;;7.03;5.93;;;9.70;87.70;;;;;;5108613;27;20374;-42
2022/06/22 03:08:13;;;;;;;7.05;6.10;;;9.70;87.80;;;;;;5132852;27;20023;-41
2022/06/22 03:10:53;;;;;;;7.50;5.93;;;9.70;87.90;;;;;;5130942;27;20102;-43
2022/06/22 03:13:28;;;;;;;8.20;7.40;;;9.70;88.00;;;;;;5132579;27;20023;-41
2022/06/22 03:15:54;;;;;;;9.25;8.27;;;9.70;88.10;;;;;;5114443;27;20149;-41
2022/06/22 03:18:27;;;;;;;10.40;9.07;;;9.80;88.10;;;;;;5112041;28;20028;-42
2022/06/22 03:21:01;;;;;;;11.10;9.98;;;9.70;88.20;;;;;;5110320;27;20399;-43
2022/06/22 03:23:40;;;;;;;9.77;8.80;;;9.80;88.20;;;;;;5131611;27;20019;-43
2022/06/22 03:26:25;;;;;;;10.73;9.63;;;9.70;88.30;;;;;;5111692;28;20107;-42
2022/06/22 03:29:01;;;;;;;11.82;10.63;;;9.80;88.20;;;;;;5097017;27;20031;-41
2022/06/22 03:31:44;;;;;;;11.65;10.02;;;9.80;88.30;;;;;;5132675;27;20019;-41
2022/06/22 03:34:15;;;;;;;12.80;9.80;;;9.80;88.10;;;;;;5130112;27;20019;-42
2022/06/22 03:36:58;;;;;;;10.60;9.57;;;9.80;88.20;;;;;;5132738;27;20077;-41
2022/06/22 03:39:30;;;;;;;13.50;11.70;;;9.80;88.20;;;;;;5123659;27;20023;-41
2022/06/22 03:42:21;;;;;;;11.13;9.93;;;9.80;88.10;;;;;;5111736;28;20019;-41
2022/06/22 03:44:56;;;;;;;11.98;10.10;;;9.80;88.20;;;;;;5111844;27;20024;-41
2022/06/22 03:47:28;;;;;;;12.45;9.40;;;9.80;88.20;;;;;;5111545;28;20039;-41
2022/06/22 03:50:01;;;;;;;12.27;10.52;;;9.80;88.30;;;;;;5112120;27;20033;-42
2022/06/22 03:52:48;;;;;;;12.43;10.77;;;9.90;88.20;;;;;;5111703;28;20085;-41
2022/06/22 03:55:22;;;;;;;11.95;10.70;;;9.90;88.10;;;;;;5103906;28;20408;-42
2022/06/22 03:57:51;;;;;;;11.07;9.98;;;9.90;88.30;;;;;;5111166;28;20480;-41
2022/06/22 04:00:19;;;;;;;10.65;9.57;;;9.90;88.20;;;;;;5115370;27;20031;-41
2022/06/22 04:02:47;;;;;;;12.02;10.77;;;9.90;88.30;;;;;;5111422;28;20111;-41
2022/06/22 04:05:17;;;;;;;11.88;10.65;;;9.90;88.20;;;;;;5111210;27;20095;-41
2022/06/22 04:07:46;;;;;;;;;;;9.90;88.20;;;;;;5111733;28;20330;-43
2022/06/22 04:10:40;;;;;;;12.90;11.60;;;9.90;88.40;;;;;;5109893;27;20015;-42
2022/06/22 04:13:21;;;;;;;14.70;11.95;;;10.00;88.40;;;;;;5110839;28;20111;-42
2022/06/22 04:16:01;;;;;;;14.38;12.60;;;10.00;88.50;;;;;;5092761;27;20031;-41
2022/06/22 04:18:32;;;;;;;14.65;12.90;;;10.10;88.60;;;;;;5093204;28;20456;-42
2022/06/22 04:21:03;;;;;;;15.25;13.50;;;10.10;88.70;;;;;;5110893;28;20035;-41
2022/06/22 04:23:56;;;;;;;16.88;14.52;;;10.10;88.80;;;;;;5111059;28;20100;-42
2022/06/22 04:26:37;;;;;;;17.00;15.13;;;10.20;88.90;;;;;;5110426;27;20473;-41
2022/06/22 04:29:18;;;;;;;20.13;16.75;;;10.30;89.00;;;;;;5111181;28;20039;-42
2022/06/22 04:31:59;;;;;;;21.23;16.52;;;10.40;89.10;;;;;;5117719;27;20336;-42
2022/06/22 04:34:41;;;;;;;17.42;15.63;;;10.50;89.20;;;;;;5122606;27;20035;-41
2022/06/22 04:37:17;;;;;;;17.27;15.45;;;10.60;89.10;;;;;;5092850;28;20070;-41
2022/06/22 04:39:48;;;;;;;17.83;15.98;;;10.60;89.00;;;;;;5110728;27;20462;-41
2022/06/22 04:42:16;;;;;;;18.23;16.25;;;10.80;89.10;;;;;;5110733;28;20405;-43
2022/06/22 04:44:49;;;;;;;19.08;17.17;;;10.80;89.00;;;;;;5110522;27;20044;-41
2022/06/22 04:47:15;;;;;;;17.13;15.43;;;10.90;89.10;;;;;;5110638;28;20034;-44
2022/06/22 04:49:56;;;;;;;17.20;15.40;;;10.90;89.10;;;;;;5127670;27;20031;-42
2022/06/22 04:52:28;;;;;;;19.05;17.20;;;11.00;89.00;;;;;;5128872;27;20032;-42
2022/06/22 04:54:56;;;;;;;20.67;15.98;;;11.20;89.10;;;;;;5126736;27;20440;-41
2022/06/22 04:57:41;;;;;;;18.85;16.90;;;11.30;89.10;;;;;;5130543;27;20077;-41
2022/06/22 05:00:15;;;;;;;19.77;17.20;;;11.50;89.10;;;;;;5110365;28;20058;-41
2022/06/22 05:02:46;;;;;;;18.65;16.75;;;11.70;89.00;;;;;;5110754;27;20026;-41
2022/06/22 05:05:24;;;;;;;20.48;17.52;;;11.80;88.90;;;;;;5115256;27;20084;-41
2022/06/22 05:07:52;;;;;;;18.02;16.23;;;11.90;88.90;;;;;;5109897;28;20464;-41
2022/06/22 05:10:32;;;;;;;19.98;17.45;;;12.00;88.80;;;;;;5110403;28;20471;-41
2022/06/22 05:13:11;;;;;;;21.42;19.08;;;12.00;88.70;;;;;;5110236;28;20032;-41
2022/06/22 05:15:39;;;;;;;25.02;20.45;;;12.10;88.80;;;;;;5109934;28;20027;-41
2022/06/22 05:18:13;;;;;;;22.60;19.90;;;12.10;88.70;;;;;;5109442;28;20033;-43
2022/06/22 05:21:17;;;;;;;21.13;18.85;;;12.20;88.80;;;;;;5110459;27;20357;-41
2022/06/22 05:23:50;;;;;;;22.75;20.00;;;12.40;88.90;;;;;;5027390;28;20406;-40
2022/06/22 05:26:18;;;;;;;23.85;19.35;;;12.50;88.90;;;;;;5093140;28;20036;-41
2022/06/22 05:28:54;;;;;;;20.08;17.85;;;12.60;88.80;;;;;;5091723;28;20032;-40
2022/06/22 05:31:25;;;;;;;23.35;20.50;;;12.70;88.80;;;;;;5091732;28;20410;-41
2022/06/22 05:33:55;;;;;;;25.88;23.15;;;12.80;88.90;;;;;;5113103;27;20119;-40
2022/06/22 05:36:24;;;;;;;21.90;19.60;;;12.90;88.90;;;;;;5130529;27;20030;-41
2022/06/22 05:38:55;;;;;;;24.27;21.42;;;13.00;88.80;;;;;;5125333;27;20070;-41
2022/06/22 05:41:27;;;;;;;22.00;19.42;;;13.30;88.60;;;;;;5109419;28;20118;-41
2022/06/22 05:43:57;;;;;;;21.55;19.20;;;13.40;88.50;;;;;;5109506;28;20027;-42
2022/06/22 05:46:23;;;;;;;18.40;16.58;;;13.70;88.40;;;;;;5109778;28;20356;-41
2022/06/22 05:48:50;;;;;;;19.40;16.38;;;14.00;88.00;;;;;;5092115;28;20031;-41
2022/06/22 05:51:30;;;;;;;18.60;15.20;;;14.20;87.20;;;;;;5125851;27;20428;-41
2022/06/22 05:54:19;;;;;;;16.17;14.57;;;14.50;86.60;;;;;;5109326;28;20063;-41
2022/06/22 05:56:53;;;;;;;14.50;12.23;;;15.10;86.30;;;;;;5109207;28;20046;-41
2022/06/22 05:59:30;;;;;;;16.27;14.55;;;15.60;85.60;;;;;;5114532;28;20035;-41
2022/06/22 06:02:04;;;;;;;14.27;12.82;;;16.00;83.00;;;;;;5116714;28;20051;-42
2022/06/22 06:04:48;;;;;;;8.60;7.38;;;16.30;82.60;;;;;;5109043;28;20024;-42
2022/06/22 06:07:18;;;;;;;16.95;12.45;;;16.50;82.40;;;;;;5113606;28;20024;-43
2022/06/22 06:09:47;;;;;;;13.98;11.35;;;16.40;81.40;;;;;;5116469;27;20023;-42
2022/06/22 06:12:21;;;;;;;12.65;11.35;;;16.50;82.50;;;;;;5127423;27;20100;-43
2022/06/22 06:14:51;;;;;;;13.95;9.20;;;16.80;81.70;;;;;;5095620;27;20332;-43
2022/06/22 06:17:34;;;;;;;10.70;7.38;;;16.90;80.70;;;;;;5133828;27;20092;-43
2022/06/22 06:20:02;;;;;;;12.48;10.32;;;17.20;80.00;;;;;;5130455;27;20034;-44
2022/06/22 06:22:30;;;;;;;13.48;11.27;;;17.30;79.10;;;;;;5095787;27;20020;-43
2022/06/22 06:28:03;;;;;;;15.32;10.80;;;17.50;78.30;;;;;;5113858;27;20046;-47
2022/06/22 06:30:45;;;;;;;9.98;8.98;;;17.40;79.70;;;;;;5113164;28;20410;-44
2022/06/22 06:33:21;;;;;;;12.48;10.05;;;17.60;79.00;;;;;;5113189;27;20039;-44
2022/06/22 06:35:52;;;;;;;14.95;9.52;;;17.80;79.10;;;;;;5113164;27;20160;-45
2022/06/22 06:38:38;;;;;;;12.52;8.05;;;17.80;78.40;;;;;;5095249;27;20441;-45
2022/06/22 06:41:07;;;;;;;15.80;10.13;;;17.80;77.90;;;;;;5094909;28;20019;-46
2022/06/22 06:44:08;;;;;;;14.73;9.30;;;17.80;77.80;;;;;;5113317;27;20610;-44
2022/06/22 06:46:41;;;;;;;11.15;8.48;;;17.50;78.80;;;;;;5049275;28;20695;-45
2022/06/22 06:49:28;;;;;;;11.90;8.35;;;17.40;78.90;;;;;;5101206;27;20035;-45
2022/06/22 06:52:01;;;;;;;11.68;8.35;;;17.50;79.70;;;;;;5123323;27;20032;-45
2022/06/22 06:54:42;;;;;;;13.75;8.07;;;17.60;79.50;;;;;;5121874;27;20043;-45
2022/06/22 06:57:16;;;;;;;13.60;9.18;;;17.70;78.70;;;;;;5121665;27;20034;-44
2022/06/22 06:59:48;;;;;;;11.57;10.00;;;17.60;77.40;;;;;;5095740;28;20127;-45
2022/06/22 07:02:32;;;;;;;11.23;10.10;;;17.80;77.70;;;;;;5130697;27;20019;-45
2022/06/22 07:05:02;;;;;;;17.02;9.98;;;17.90;76.90;;;;;;5126275;27;20106;-47
2022/06/22 07:07:56;;;;;;;13.40;8.27;;;18.10;77.30;;;;;;5118048;27;20081;-45
2022/06/22 07:10:46;;;;;;;14.65;9.35;;;18.30;77.20;;;;;;5093774;28;20482;-45
2022/06/22 07:13:43;;;;;;;12.50;8.30;;;18.60;76.40;;;;;;5102872;27;20108;-45
2022/06/22 07:16:14;;;;;;;11.02;6.93;;;18.90;73.50;;;;;;5104243;28;20050;-46
2022/06/22 07:18:52;;;;;;;8.55;5.65;;;19.10;72.20;;;;;;5112807;27;20050;-45
2022/06/22 07:21:20;;;;;;;8.63;6.00;;;19.50;70.10;;;;;;5131685;27;20343;-45
2022/06/22 07:24:04;;;;;;;20.00;6.68;;;20.20;70.10;;;;;;5104923;28;20035;-46
2022/06/22 07:26:38;;;;;;;6.18;4.93;;;20.60;67.60;;;;;;5112944;27;20529;-45
2022/06/22 07:29:31;;;;;;;13.27;6.13;;;21.00;66.90;;;;;;5114130;27;20432;-45
2022/06/22 07:32:37;;;;;;;8.52;5.57;;;21.60;64.80;;;;;;5103395;28;20081;-47
2022/06/22 07:35:24;;;;;;;18.50;6.55;;;21.90;62.90;;;;;;5104704;27;20125;-46
2022/06/22 07:38:16;;;;;;;9.75;5.47;;;22.20;62.60;;;;;;5099381;27;20027;-46
2022/06/22 07:41:18;;;;;;;8.95;6.07;;;22.70;59.70;;;;;;5111990;28;20102;-46
2022/06/22 07:43:34;;;;;;;12.10;6.05;;;22.70;58.30;;;;;;5114336;27;20027;-46
2022/06/22 07:46:01;;;;;;;9.10;5.45;;;22.80;57.70;;;;;;5130902;27;20027;-48
2022/06/22 07:48:30;;;;;;;8.50;5.43;;;23.10;57.60;;;;;;5074481;28;20020;-47
2022/06/22 07:50:58;;;;;;;;;;;23.20;57.90;;;;;;5112002;28;20043;-44
2022/06/22 07:53:38;;;;;;;6.88;4.20;;;23.20;56.30;;;;;;5093866;28;19998;-46
2022/06/22 07:56:31;;;;;;;6.78;3.88;;;23.30;54.50;;;;;;5111046;28;20124;-49
2022/06/22 07:59:03;;;;;;;7.05;3.60;;;23.60;55.30;;;;;;5111066;28;20027;-46
2022/06/22 08:01:35;;;;;;;9.63;3.72;;;23.90;52.90;;;;;;5111781;27;20106;-46
2022/06/22 08:04:05;;;;;;;8.50;3.70;;;24.40;52.00;;;;;;5119559;27;20110;-46
2022/06/22 08:06:43;;;;;;;5.47;2.53;;;24.60;51.70;;;;;;5110928;28;20089;-45
2022/06/22 08:09:18;;;;;;;9.13;4.22;;;25.10;51.60;;;;;;5093074;28;20452;-46
2022/06/22 08:12:07;;;;;;;8.20;4.18;;;25.20;50.00;;;;;;5111369;28;20028;-49
2022/06/22 08:14:42;;;;;;;6.45;3.13;;;25.10;51.40;;;;;;5111382;27;20119;-47
2022/06/22 08:17:33;;;;;;;10.43;3.78;;;24.90;51.40;;;;;;5110785;28;20066;-45
2022/06/22 08:19:59;;;;;;;7.38;3.35;;;25.10;52.30;;;;;;5101807;28;20036;-46
2022/06/22 08:22:25;;;;;;;8.85;3.78;;;25.10;53.10;;;;;;5110791;28;20558;-45
2022/06/22 08:24:55;;;;;;;7.47;3.42;;;24.80;53.50;;;;;;5122288;27;20075;-46
2022/06/22 08:27:23;;;;;;;10.57;4.25;;;24.90;54.10;;;;;;5109485;28;20103;-45
2022/06/22 08:29:50;;;;;;;10.30;3.92;;;24.80;54.60;;;;;;5118723;27;20023;-46
2022/06/22 08:32:21;;;;;;;9.15;3.97;;;24.90;54.00;;;;;;5118702;27;20397;-46
2022/06/22 08:34:56;;;;;;;7.85;3.55;;;24.20;53.40;;;;;;5123377;27;20129;-46
2022/06/22 08:37:29;;;;;;;6.38;4.00;;;24.40;54.80;;;;;;5113649;27;20096;-46
2022/06/22 08:40:46;;;;;;;9.82;3.90;;;24.70;53.90;;;;;;5110047;28;20076;-46
2022/06/22 08:43:53;;;;;;;7.97;3.75;;;24.70;53.20;;;;;;5032301;28;20024;-45
2022/06/22 08:46:37;;;;;;;10.52;4.07;;;24.70;53.20;;;;;;5043269;28;20663;-47
2022/06/22 08:49:31;;;;;;;8.18;3.58;;;24.60;51.80;;;;;;5084473;28;20047;-46
2022/06/22 08:52:13;;;;;;;7.22;3.00;;;24.60;51.80;;;;;;5129346;27;20028;-46
2022/06/22 08:54:56;;;;;;;7.55;3.58;;;24.90;51.30;;;;;;5109828;28;20201;-46
2022/06/22 08:57:38;;;;;;;7.93;4.28;;;24.50;52.30;;;;;;5091569;27;20024;-46
2022/06/22 09:00:19;;;;;;;6.45;3.10;;;24.60;51.40;;;;;;5110171;28;20020;-47
2022/06/22 09:03:12;;;;;;;7.78;4.05;;;25.10;53.30;;;;;;5092349;28;20038;-46
2022/06/22 09:05:53;;;;;;;5.97;3.22;;;24.90;52.20;;;;;;5100087;28;20047;-46
2022/06/22 09:09:15;;;;;;;7.07;4.05;;;24.50;54.50;;;;;;5109519;27;20106;-46
2022/06/22 09:12:08;;;;;;;7.45;3.88;;;24.40;54.00;;;;;;5007994;28;20044;-46
2022/06/22 09:14:57;;;;;;;8.13;4.57;;;24.60;52.40;;;;;;5023114;28;20112;-48
2022/06/22 09:17:30;;;;;;;7.57;4.30;;;24.80;53.20;;;;;;5026515;28;20037;-48
2022/06/22 09:20:22;;;;;;;9.52;4.03;;;24.60;53.30;;;;;;5027237;28;20545;-46
2022/06/22 09:22:59;;;;;;;8.60;4.88;;;24.40;54.60;;;;;;5009656;28;20746;-46
2022/06/22 09:25:37;;;;;;;7.60;4.80;;;24.20;54.30;;;;;;5016185;28;20033;-46
2022/06/22 09:28:28;;;;;;;9.85;4.53;;;24.30;54.10;;;;;;5025555;28;20037;-47
2022/06/22 09:31:04;;;;;;;12.10;4.85;;;24.00;54.30;;;;;;5013483;28;20105;-47
2022/06/22 09:33:39;;;;;;;8.18;4.28;;;23.80;54.60;;;;;;5019637;28;20039;-47
2022/06/22 09:36:33;;;;;;;8.63;4.60;;;23.70;54.90;;;;;;5010615;28;20033;-46
2022/06/22 09:39:22;;;;;;;7.68;3.90;;;23.70;54.80;;;;;;5011630;28;20124;-46
2022/06/22 09:42:25;;;;;;;6.20;3.58;;;23.90;58.50;;;;;;5053718;28;20447;-46
2022/06/22 09:45:17;;;;;;;7.55;3.45;;;24.00;54.90;;;;;;5123096;27;20036;-46
2022/06/22 09:47:49;;;;;;;9.98;4.88;;;24.20;54.50;;;;;;5109490;28;20030;-47
2022/06/22 09:50:37;;;;;;;7.20;3.90;;;23.60;53.80;;;;;;5113829;28;20035;-47
2022/06/22 09:53:23;;;;;;;7.63;3.90;;;23.90;55.20;;;;;;5111973;28;20443;-47
2022/06/22 09:58:54;;;;;;;7.00;3.53;;;24.70;53.10;;;;;;5124708;28;20042;-46
2022/06/22 10:01:36;;;;;;;8.25;3.80;;;24.90;52.80;;;;;;5112401;28;20131;-46
2022/06/22 10:04:21;;;;;;;9.85;5.15;;;24.80;53.00;;;;;;5122246;28;20046;-46
2022/06/22 10:07:20;;;;;;;9.05;4.60;;;24.80;52.40;;;;;;5128869;28;20059;-46
2022/06/22 10:09:45;;;;;;;7.70;4.47;;;25.10;52.00;;;;;;5114369;28;20023;-51
2022/06/22 10:12:43;;;;;;;8.38;3.97;;;24.90;56.10;;;;;;5091436;28;20028;-48
2022/06/22 10:15:30;;;;;;;9.00;4.05;;;25.00;49.90;;;;;;5109332;28;20027;-47
2022/06/22 10:18:33;;;;;;;7.63;4.22;;;24.80;50.00;;;;;;5109166;28;20024;-47
2022/06/22 10:21:22;;;;;;;9.63;4.97;;;24.90;51.70;;;;;;5102795;28;20027;-46
2022/06/22 10:24:29;;;;;;;7.72;4.38;;;25.00;51.70;;;;;;5109293;28;20024;-46
2022/06/22 10:27:25;;;;;;;8.80;4.45;;;24.90;51.10;;;;;;5108610;28;20028;-47
2022/06/22 10:30:18;;;;;;;9.18;4.68;;;25.20;51.20;;;;;;5109119;28;20024;-47
2022/06/22 10:33:19;;;;;;;8.23;3.92;;;24.80;53.50;;;;;;5109077;28;20027;-49
2022/06/22 10:36:21;;;;;;;9.57;3.83;;;25.20;55.20;;;;;;5087194;28;20034;-47
2022/06/22 10:39:07;;;;;;;10.07;5.18;;;25.20;54.90;;;;;;5118731;28;20066;-46
2022/06/22 10:45:08;;;;;;;9.05;4.13;;;24.10;60.50;;;;;;5109063;28;20046;-52
2022/06/22 10:47:44;;;;;;;11.57;4.47;;;23.80;61.10;;;;;;5108954;28;20031;-47
2022/06/22 10:50:19;;;;;;;12.48;4.45;;;23.70;62.50;;;;;;5110097;28;20027;-46
2022/06/22 10:53:22;;;;;;;11.95;4.80;;;23.90;62.10;;;;;;5094480;28;20020;-47
2022/06/22 10:56:04;;;;;;;9.57;4.70;;;23.80;61.20;;;;;;5113101;27;20042;-47
2022/06/22 10:59:01;;;;;;;12.10;4.95;;;23.90;61.00;;;;;;5112542;28;20421;-47
2022/06/22 11:02:13;;;;;;;9.90;5.05;;;23.80;61.20;;;;;;5115469;27;20028;-47
2022/06/22 11:05:10;;;;;;;13.38;5.05;;;23.80;62.50;;;;;;5113479;27;20497;-47
2022/06/22 11:07:57;;;;;;;10.80;5.25;;;23.50;61.60;;;;;;5109565;28;20468;-47
2022/06/22 11:11:03;;;;;;;9.77;4.28;;;23.20;62.40;;;;;;5112702;28;20059;-45
2022/06/22 11:13:52;;;;;;;8.68;5.10;;;22.80;66.10;;;;;;5124410;27;20161;-46
2022/06/22 11:16:25;;;;;;;12.82;5.07;;;22.90;66.10;;;;;;5112476;27;20027;-46
2022/06/22 11:19:28;;;;;;;10.93;5.32;;;23.00;65.30;;;;;;5112128;28;20070;-49
2022/06/22 11:21:53;;;;;;;13.60;5.55;;;23.10;63.60;;;;;;5112283;28;20031;-46
2022/06/22 11:25:05;;;;;;;11.43;5.57;;;23.00;65.70;;;;;;5112611;27;20076;-46
2022/06/22 11:30:51;;;;;;;14.98;5.50;;;23.00;64.80;;;;;;5131351;27;20513;-50
2022/06/22 11:33:42;;;;;;;11.75;5.13;;;22.80;62.80;;;;;;5132259;27;20110;-46
2022/06/22 11:36:46;;;;;;;7.90;4.07;;;22.90;64.30;;;;;;5111900;27;20023;-48
2022/06/22 11:39:30;;;;;;;13.07;5.18;;;23.00;62.10;;;;;;5112033;27;20355;-46
2022/06/22 11:42:11;;;;;;;11.48;5.22;;;22.90;64.10;;;;;;5093908;28;20028;-46
2022/06/22 11:45:49;;;;;;;14.48;5.68;;;22.90;64.70;;;;;;5093366;28;20027;-46
2022/06/22 11:48:02;;;;;;;10.75;5.07;;;22.70;62.10;;;;;;5111727;28;20433;-50
2022/06/22 11:51:09;;;;;;;9.25;3.67;;;22.60;64.10;;;;;;5111841;28;20046;-46
2022/06/22 11:53:48;;;;;;;9.48;4.68;;;22.40;63.80;;;;;;5071508;27;20384;-46
2022/06/22 11:56:45;;;;;;;13.77;4.82;;;22.30;68.00;;;;;;5125054;27;20452;-45
2022/06/22 11:59:19;;;;;;;11.07;4.75;;;22.30;65.40;;;;;;5072524;27;20071;-48
2022/06/22 12:01:48;;;;;;;17.25;5.72;;;22.20;64.60;;;;;;5111547;28;20511;-45
2022/06/22 12:04:22;;;;;;;10.10;3.90;;;22.20;63.30;;;;;;5111138;28;20372;-46
2022/06/22 12:07:08;;;;;;;9.88;5.93;;;22.20;66.30;;;;;;5111340;28;20265;-48
2022/06/22 12:09:58;;;;;;;15.95;4.78;;;22.10;64.30;;;;;;5114731;27;20028;-48
2022/06/22 12:12:30;;;;;;;10.00;5.15;;;22.10;66.90;;;;;;5110537;27;20055;-46
2022/06/22 12:15:06;;;;;;;9.70;4.78;;;22.20;65.40;;;;;;5092831;28;20523;-47
2022/06/22 12:17:49;;;;;;;13.43;6.10;;;21.90;67.10;;;;;;5092650;28;20039;-46
2022/06/22 12:20:52;;;;;;;14.15;7.20;;;21.80;68.80;;;;;;5129542;27;20061;-47
2022/06/22 12:23:58;;;;;;;13.77;6.70;;;21.40;68.60;;;;;;5124529;27;20767;-46
2022/06/22 12:26:32;;;;;;;11.57;6.28;;;21.40;69.40;;;;;;5110962;28;20035;-46
2022/06/22 12:29:31;;;;;;;10.73;5.28;;;21.50;65.80;;;;;;5112829;27;20023;-45
2022/06/22 12:32:12;;;;;;;14.98;4.88;;;21.60;69.40;;;;;;5101995;27;20052;-45
2022/06/22 12:35:04;;;;;;;12.85;5.07;;;21.70;68.60;;;;;;5104572;27;20100;-46
2022/06/22 12:38:03;;;;;;;10.55;5.57;;;21.50;68.40;;;;;;5110008;27;20035;-46
2022/06/22 12:41:16;;;;;;;8.73;4.57;;;21.50;69.20;;;;;;5092649;28;20043;-47
2022/06/22 12:44:29;;;;;;;15.10;5.18;;;21.40;66.20;;;;;;5082929;28;20360;-45
2022/06/22 12:47:18;;;;;;;14.98;4.97;;;21.10;68.40;;;;;;4994373;28;20021;-46
2022/06/22 12:50:13;;;;;;;10.32;5.25;;;21.10;66.30;;;;;;5087333;28;20434;-46
2022/06/22 12:52:51;;;;;;;8.40;4.25;;;21.00;66.80;;;;;;5110232;27;20062;-47
2022/06/22 12:55:32;;;;;;;13.75;6.05;;;20.90;67.40;;;;;;5112874;27;20043;-45
2022/06/22 12:58:08;;;;;;;15.23;5.38;;;20.90;69.20;;;;;;5094362;27;20035;-46
2022/06/22 13:00:34;;;;;;;12.40;4.90;;;20.90;70.50;;;;;;5130851;27;20020;-46
2022/06/22 13:03:04;;;;;;;12.65;5.15;;;20.80;68.90;;;;;;5129041;27;20047;-46
2022/06/22 13:05:35;;;;;;;16.92;6.38;;;20.90;69.80;;;;;;5096539;27;20142;-45
2022/06/22 13:08:21;;;;;;;9.57;4.53;;;20.60;70.10;;;;;;5127679;27;20024;-45
2022/06/22 13:10:51;;;;;;;8.93;4.57;;;20.50;71.10;;;;;;5121786;27;20057;-45
2022/06/22 13:13:16;;;;;;;8.23;4.32;;;20.50;70.00;;;;;;5130240;27;20031;-45
2022/06/22 13:15:57;;;;;;;15.45;5.40;;;20.50;72.50;;;;;;5129165;27;20027;-46
2022/06/22 13:18:49;;;;;;;12.85;5.03;;;20.60;70.60;;;;;;5130607;27;20034;-46
2022/06/22 13:21:38;;;;;;;11.18;4.50;;;20.60;70.00;;;;;;5110733;27;20027;-46
2022/06/22 13:24:52;;;;;;;9.03;5.00;;;20.60;69.70;;;;;;5091895;28;20038;-46
2022/06/22 13:27:27;;;;;;;9.40;4.25;;;20.50;69.90;;;;;;5101364;28;20034;-46
2022/06/22 13:30:27;;;;;;;12.88;5.70;;;20.50;71.60;;;;;;5109613;28;20026;-46
2022/06/22 13:33:09;;;;;;;9.35;3.75;;;20.40;70.20;;;;;;5089223;28;20168;-45
2022/06/22 13:35:45;;;;;;;9.35;4.35;;;20.40;70.50;;;;;;5109562;28;20047;-45
2022/06/22 13:38:20;;;;;;;12.68;5.43;;;20.40;71.70;;;;;;5105807;28;20031;-45
2022/06/22 13:41:21;;;;;;;13.82;3.97;;;20.40;70.70;;;;;;5091515;28;20450;-45
2022/06/22 13:44:03;;;;;;;6.57;3.75;;;20.20;70.40;;;;;;5069898;27;20053;-45
2022/06/22 13:46:34;;;;;;;9.90;4.65;;;20.30;70.40;;;;;;5119211;27;20080;-48
2022/06/22 13:49:27;;;;;;;9.75;5.20;;;20.20;70.60;;;;;;5113529;27;20104;-46
2022/06/22 13:52:12;;;;;;;10.48;4.78;;;20.20;69.30;;;;;;5109720;28;20027;-45
2022/06/22 13:55:02;;;;;;;11.48;5.45;;;20.30;72.80;;;;;;5109133;28;20102;-46
2022/06/22 13:57:31;;;;;;;;;;;20.30;70.70;;;;;;5109850;28;20456;-48
2022/06/22 14:00:06;;;;;;;9.25;4.68;;;20.30;71.70;;;;;;5109445;28;19953;-46
2022/06/22 14:02:38;;;;;;;9.75;4.97;;;20.30;70.50;;;;;;5091557;28;20062;-46
2022/06/22 14:05:14;;;;;;;11.65;4.63;;;20.30;71.20;;;;;;5109895;28;20038;-46